Terminal Aerodrome Forecast
Issued by NWS Sioux Falls, SD

Home | Current Version | Previous Version | Graphics & Text | Print | Product List | Glossary On
Versions: 1 2 3 4 5 6 7 8 9 10 11 12 13 14 15
000
FTUS43 KFSD 221100
TAFFSD
TAF
KFSD 221120Z 2212/2312 VRB04KT P6SM SKC
     FM221500 15008KT P6SM SCT200
     FM222100 14013G19KT P6SM BKN100
     FM230600 14017G24KT P6SM OVC080 PROB30 2309/2312 -SHRA BKN060=

USA.gov is the U.S. government's official web portal to all federal, state and local government web resources and services.